Weather History for KBXK - May, 2013

Change the Weather History Date:

Friday, May 24, 2013

  Actual Average (KGYR) Record (KGYR)
Temperature  
Mean Temperature 80 °F -  
Max Temperature 95 °F 96 °F 111 °F (2001)
Min Temperature 66 °F 66 °F 55 °F (2008)
Cooling Degree Days 16    
Growing Degree Days 30 (Base 50)    
Moisture  
Dew Point 24 °F    
Average Humidity 13    
Maximum Humidity 24    
Minimum Humidity 6    
Precipitation  
Precipitation 0.00 in - - ()
Sea Level Pressure  
Sea Level Pressure 29.84 in    
Wind  
Wind Speed 7 mph (SSE)    
Max Wind Speed 17 mph    
Max Gust Speed 23 mph    
Visibility 10 miles    
Events      
Averages and records for this station are not official NWS values.
T = Trace of Precipitation, MM = Missing Value Source: NWS Daily Summary

Daily Weather History Graph

Daily Weather History Graph

Search for Another Location

Airport or City:

Trip Planner

Search our weather history database for the weather conditions in past years. The results will help you decide how hot, cold, wet, or windy it might be!

Date:

Astronomy

May. 24, 2013 Rise Set
Actual Time 5:24 AM MST 7:30 PM MST
Civil Twilight 4:56 AM MST 7:58 PM MST
Nautical Twilight 4:22 AM MST 8:32 PM MST
Astronomical Twilight 3:46 AM MST 9:09 PM MST
Moon 7:18 PM MST (5/24) 4:57 AM MST (5/24)
Length of Visible Light 15h 01m
Length of Day
14h 05m
Full, 100% of the Moon is Illuminated
May 24
Full
May 24
Full
May 31
Last Quarter
Jun 8
New
Jun 16
First Quarter

Hourly Weather History & Observations

Time (MST) Temp. Dew Point Humidity Pressure Visibility Wind Dir Wind Speed Gust Speed Precip Events Conditions
12:15 AM 73.4 °F 24.8 °F 16% 29.81 in 10.0 mi SW 9.2 mph - N/A   Clear
12:35 AM 71.6 °F 24.8 °F 17% 29.81 in 10.0 mi SW 9.2 mph - N/A   Clear
12:55 AM 69.8 °F 26.6 °F 20% 29.82 in 10.0 mi North 3.5 mph - N/A   Partly Cloudy
1:15 AM 73.4 °F 23.0 °F 15% 29.82 in 10.0 mi Calm Calm - N/A   Scattered Clouds
1:35 AM 73.4 °F 24.8 °F 16% 29.82 in 10.0 mi Calm Calm - N/A   Mostly Cloudy
1:55 AM 69.8 °F 23.0 °F 17% 29.82 in 10.0 mi NE 3.5 mph - N/A   Mostly Cloudy
2:15 AM 69.8 °F 23.0 °F 17% 29.82 in 10.0 mi NNE 4.6 mph - N/A   Scattered Clouds
2:35 AM 68.0 °F 23.0 °F 18% 29.83 in 10.0 mi Calm Calm - N/A   Mostly Cloudy
2:55 AM 66.2 °F 23.0 °F 19% 29.83 in 10.0 mi ENE 3.5 mph - N/A   Mostly Cloudy
3:15 AM 66.2 °F 26.6 °F 23% 29.83 in 10.0 mi ENE 4.6 mph - N/A   Overcast
3:35 AM 68.0 °F 24.8 °F 20% 29.83 in 10.0 mi NE 3.5 mph - N/A   Overcast
3:55 AM 68.0 °F 24.8 °F 20% 29.84 in 10.0 mi ENE 5.8 mph - N/A   Mostly Cloudy
4:15 AM 66.2 °F 24.8 °F 21% 29.84 in 10.0 mi NE 5.8 mph - N/A   Mostly Cloudy
4:35 AM 66.2 °F 23.0 °F 19% 29.84 in 10.0 mi ENE 6.9 mph - N/A   Mostly Cloudy
4:55 AM 66.2 °F 24.8 °F 21% 29.85 in 10.0 mi East 9.2 mph - N/A   Mostly Cloudy
5:15 AM 66.2 °F 24.8 °F 21% 29.85 in 10.0 mi ENE 8.1 mph - N/A   Partly Cloudy
5:35 AM 68.0 °F 26.6 °F 21% 29.86 in 10.0 mi ENE 5.8 mph - N/A   Clear
5:55 AM 66.2 °F 26.6 °F 23% 29.87 in 10.0 mi NE 5.8 mph - N/A   Clear
6:15 AM 68.0 °F 26.6 °F 21% 29.87 in 10.0 mi ENE 5.8 mph - N/A   Clear
6:35 AM 73.4 °F 26.6 °F 18% 29.88 in 10.0 mi ENE 4.6 mph - N/A   Clear
6:55 AM 75.2 °F 26.6 °F 17% 29.88 in 10.0 mi East 4.6 mph - N/A   Clear
7:15 AM 75.2 °F 30.2 °F 19% 29.89 in 9.0 mi ESE 5.8 mph - N/A   Clear
7:35 AM 75.2 °F 35.6 °F 24% 29.89 in 10.0 mi ESE 6.9 mph - N/A   Clear
7:55 AM 77.0 °F 33.8 °F 21% 29.89 in 10.0 mi ESE 9.2 mph - N/A   Clear
8:15 AM 80.6 °F 26.6 °F 14% 29.90 in 10.0 mi East 13.8 mph - N/A   Clear
8:35 AM 80.6 °F 28.4 °F 15% 29.90 in 9.0 mi ESE 13.8 mph - N/A   Clear
8:55 AM 82.4 °F 30.2 °F 15% 29.90 in 10.0 mi ESE 11.5 mph - N/A   Clear
9:15 AM 84.2 °F 26.6 °F 12% 29.90 in 10.0 mi ESE 10.4 mph - N/A   Clear
9:35 AM 84.2 °F 28.4 °F 13% 29.90 in 10.0 mi ESE 11.5 mph - N/A   Clear
9:55 AM 84.2 °F 28.4 °F 13% 29.90 in 10.0 mi ESE 8.1 mph - N/A   Clear
10:15 AM 86.0 °F 30.2 °F 13% 29.90 in 10.0 mi East 9.2 mph - N/A   Clear
10:35 AM 86.0 °F 32.0 °F 14% 29.90 in 10.0 mi SE 5.8 mph - N/A   Clear
10:55 AM 86.0 °F 28.4 °F 12% 29.89 in 10.0 mi ESE 5.8 mph - N/A   Clear
11:15 AM 86.0 °F 30.2 °F 13% 29.89 in 10.0 mi SE 4.6 mph - N/A   Clear
11:35 AM 89.6 °F 32.0 °F 13% 29.89 in 10.0 mi Calm Calm - N/A   Clear
11:55 AM 89.6 °F 30.2 °F 12% 29.88 in 10.0 mi SW 6.9 mph - N/A   Clear
12:15 PM 89.6 °F 28.4 °F 11% 29.87 in 10.0 mi Calm Calm - N/A   Clear
12:35 PM 89.6 °F 30.2 °F 12% 29.87 in 10.0 mi SE 5.8 mph - N/A   Clear
12:55 PM 91.4 °F 28.4 °F 10% 29.86 in 10.0 mi SE 11.5 mph - N/A   Clear
1:15 PM 93.2 °F 28.4 °F 10% 29.86 in 9.0 mi SSW 11.5 mph 19.6 mph N/A   Clear
1:35 PM 93.2 °F 28.4 °F 10% 29.86 in 9.0 mi South 8.1 mph 19.6 mph N/A   Clear
1:55 PM 93.2 °F 28.4 °F 10% 29.85 in 10.0 mi SSE 10.4 mph - N/A   Clear
2:15 PM 95.0 °F 28.4 °F 9% 29.84 in 10.0 mi SSW 13.8 mph 20.7 mph N/A   Clear
2:35 PM 93.2 °F 26.6 °F 9% 29.84 in 10.0 mi South 9.2 mph 18.4 mph N/A   Clear
2:55 PM 95.0 °F 26.6 °F 9% 29.83 in 9.0 mi South 12.7 mph - N/A   Clear
3:15 PM 95.0 °F 24.8 °F 8% 29.82 in 10.0 mi South 10.4 mph 20.7 mph N/A   Clear
3:35 PM 95.0 °F 26.6 °F 9% 29.82 in 10.0 mi SSW 17.3 mph 20.7 mph N/A   Clear
3:55 PM 95.0 °F 21.2 °F 7% 29.82 in 9.0 mi SSW 16.1 mph 21.9 mph N/A   Clear
4:15 PM 95.0 °F 17.6 °F 6% 29.81 in 10.0 mi SSW 12.7 mph 23.0 mph N/A   Clear
4:35 PM 95.0 °F 17.6 °F 6% 29.81 in 10.0 mi SSW 15.0 mph 19.6 mph N/A   Clear
4:55 PM 95.0 °F 17.6 °F 6% 29.81 in 10.0 mi SSW 13.8 mph 19.6 mph N/A   Clear
5:15 PM 93.2 °F 21.2 °F 7% 29.80 in 10.0 mi South 16.1 mph - N/A   Clear
5:35 PM 93.2 °F 23.0 °F 8% 29.80 in 10.0 mi SSW 12.7 mph - N/A   Clear
5:55 PM 93.2 °F 19.4 °F 7% 29.80 in 10.0 mi South 11.5 mph 18.4 mph N/A   Clear
6:15 PM 91.4 °F 24.8 °F 9% 29.80 in 10.0 mi SSW 12.7 mph - N/A   Clear
6:35 PM 91.4 °F 23.0 °F 8% 29.80 in 10.0 mi SSW 13.8 mph 18.4 mph N/A   Clear
6:55 PM 89.6 °F 19.4 °F 8% 29.80 in 10.0 mi SSW 11.5 mph - N/A   Clear
7:15 PM 87.8 °F 19.4 °F 8% 29.80 in 10.0 mi SSW 10.4 mph - N/A   Clear
7:35 PM 84.2 °F 21.2 °F 10% 29.81 in 10.0 mi SW 9.2 mph - N/A   Clear
7:55 PM 84.2 °F 17.6 °F 8% 29.81 in 10.0 mi SW 9.2 mph - N/A   Clear
8:15 PM 82.4 °F 19.4 °F 10% 29.81 in 10.0 mi SW 10.4 mph - N/A   Clear
8:35 PM 82.4 °F 21.2 °F 10% 29.82 in 10.0 mi WSW 9.2 mph - N/A   Clear
8:55 PM 80.6 °F 19.4 °F 10% 29.82 in 10.0 mi WSW 8.1 mph - N/A   Clear
9:15 PM 78.8 °F 19.4 °F 11% 29.83 in 10.0 mi WSW 6.9 mph - N/A   Clear
9:35 PM 78.8 °F 15.8 °F 9% 29.84 in 10.0 mi West 4.6 mph - N/A   Clear
9:55 PM 78.8 °F 14.0 °F 9% 29.84 in 10.0 mi West 4.6 mph - N/A   Clear
10:15 PM 80.6 °F 14.0 °F 8% 29.84 in 10.0 mi NW 3.5 mph - N/A   Clear
10:35 PM 80.6 °F 14.0 °F 8% 29.84 in 10.0 mi Calm Calm - N/A   Clear
10:55 PM 78.8 °F 14.0 °F 9% 29.84 in 10.0 mi West 3.5 mph - N/A   Clear
11:15 PM 75.2 °F 15.8 °F 11% 29.84 in 10.0 mi WSW 3.5 mph - N/A   Clear
11:35 PM 75.2 °F 14.0 °F 10% 29.84 in 10.0 mi WSW 6.9 mph - N/A   Clear
11:55 PM 73.4 °F 15.8 °F 11% 29.84 in 10.0 mi SW 4.6 mph - N/A   Clear